Terminal Aerodrome Forecast
Issued by NWS

Home | Current Version | Previous Version | Text Only | Print | Product List | Glossary On
Versions: 1 2 3 4 5 6 7 8 9 10 11 12 13 14 15 16 17 18 19 20
000
FTUS42 KTBW 021731
TAFPGD
TAF
KPGD 021731Z 0218/0318 26011KT P6SM VCTS SCT025CB BKN250
     FM030000 24006KT P6SM VCSH SCT025 BKN250
     FM030700 16004KT P6SM VCSH SCT025 BKN250
     FM031500 23008KT P6SM VCTS SCT035CB BKN250=

USA.gov is the U.S. government's official web portal to all federal, state and local government web resources and services.